Time;durP1;ratioP1;P1;durP2;ratioP2;P2;SDS_P1;SDS_P2;PMS_P1;PMS_P2;Temp;Humidity;BMP_temperature;BMP_pressure;BME280_temperature;BME280_humidity;BME280_pressure;Samples;Min_cycle;Max_cycle;Signal;HPM_P1;HPM_P2
2024/01/13 00:00:24;;;;;;;16.50;6.80;;;-1.10;99.90;;;-3.18;100.00;100761.69;10209564;28;96457;-88
2024/01/13 00:05:28;;;;;;;12.70;5.70;;;-1.20;99.90;;;-3.29;100.00;100750.94;10198246;28;96520;-87
2024/01/13 00:10:32;;;;;;;12.87;6.10;;;-1.30;99.90;;;-3.29;100.00;100735.34;10224471;28;96877;-86
2024/01/13 00:15:36;;;;;;;14.00;6.33;;;-1.30;99.90;;;-3.29;100.00;100732.75;10224450;28;97391;-87
2024/01/13 00:20:39;;;;;;;11.50;5.87;;;-1.30;99.90;;;-3.25;100.00;100742.06;10209619;28;96603;-87
2024/01/13 00:25:43;;;;;;;12.90;6.07;;;-1.30;99.90;;;-3.15;100.00;100738.16;10209450;28;96615;-88
2024/01/13 00:30:47;;;;;;;13.63;6.00;;;-1.20;99.90;;;-2.97;98.83;100752.09;10206633;28;96584;-88
2024/01/13 00:35:50;;;;;;;14.03;5.43;;;-1.10;99.90;;;-2.91;98.16;100745.78;10188709;28;97526;-87
2024/01/13 00:40:54;;;;;;;11.30;5.40;;;-1.00;99.90;;;-2.91;97.84;100741.44;10240461;28;96531;-87
2024/01/13 00:45:58;;;;;;;10.70;5.00;;;-0.90;99.90;;;-2.89;97.84;100747.41;10228429;28;96460;-87
2024/01/13 00:51:02;;;;;;;10.30;4.87;;;-1.00;99.90;;;-2.89;97.41;100751.75;10231551;28;96684;-86
2024/01/13 00:56:06;;;;;;;12.27;5.57;;;-0.90;99.90;;;-2.83;97.12;100754.91;10238510;28;96474;-87
2024/01/13 01:01:12;;;;;;;14.87;5.47;;;-0.90;99.90;;;-2.86;97.23;100754.22;10213670;28;96978;-88
2024/01/13 01:06:19;;;;;;;9.67;4.97;;;-0.90;99.90;;;-2.91;97.55;100743.19;10231389;28;96430;-88
2024/01/13 01:11:24;;;;;;;14.60;4.93;;;-1.00;99.90;;;-3.06;99.37;100749.91;10229840;28;96570;-88
2024/01/13 01:16:28;;;;;;;14.30;5.93;;;-1.00;99.90;;;-3.13;100.00;100746.72;10214362;28;97788;-88
2024/01/13 01:21:31;;;;;;;14.47;5.60;;;-1.10;99.90;;;-3.14;100.00;100736.41;10190891;28;96594;-87
2024/01/13 01:26:35;;;;;;;13.33;5.27;;;-1.20;99.90;;;-3.17;100.00;100734.81;10213794;28;97042;-88
2024/01/13 01:31:39;;;;;;;13.07;5.87;;;-1.20;99.90;;;-3.18;100.00;100730.47;10214598;28;96483;-87
2024/01/13 01:36:42;;;;;;;12.53;5.17;;;-1.20;99.90;;;-3.19;100.00;100717.56;10214046;28;96599;-87
2024/01/13 01:41:46;;;;;;;12.77;5.57;;;-1.30;99.90;;;-3.15;100.00;100712.16;10228392;28;96630;-87
2024/01/13 01:46:51;;;;;;;12.00;5.67;;;-1.20;99.90;;;-3.10;100.00;100709.38;10225002;28;96859;-87
2024/01/13 01:51:55;;;;;;;11.80;4.27;;;-1.20;99.90;;;-3.08;100.00;100674.56;10210940;28;96573;-87
2024/01/13 01:56:59;;;;;;;11.17;4.97;;;-1.20;99.90;;;-3.05;100.00;100673.63;10227690;28;96448;-87
2024/01/13 02:02:06;;;;;;;10.77;4.83;;;-1.10;99.90;;;-3.00;100.00;100682.91;10222642;28;96681;-87
2024/01/13 02:07:11;;;;;;;13.00;5.17;;;-1.10;99.90;;;-3.00;100.00;100666.41;10226349;28;96562;-87
2024/01/13 02:12:14;;;;;;;12.03;4.83;;;-1.00;99.90;;;-2.99;100.00;100658.56;10180587;28;96695;-87
2024/01/13 02:17:19;;;;;;;11.67;5.07;;;-1.10;99.90;;;-3.01;100.00;100649.97;10208949;28;96526;-88
2024/01/13 02:22:23;;;;;;;7.33;3.93;;;-1.10;99.90;;;-3.05;100.00;100661.44;10227842;28;96585;-88
2024/01/13 02:27:27;;;;;;;11.37;4.40;;;-1.10;99.90;;;-3.09;100.00;100656.47;10211139;28;96709;-86
2024/01/13 02:32:31;;;;;;;8.17;4.40;;;-1.10;99.90;;;-3.06;100.00;100672.78;10222920;28;96694;-87
2024/01/13 02:37:34;;;;;;;9.30;4.87;;;-1.10;99.90;;;-3.04;100.00;100654.50;10211631;28;96910;-88
2024/01/13 02:42:39;;;;;;;12.53;5.17;;;-1.10;99.90;;;-3.10;100.00;100645.22;10223678;28;96549;-88
2024/01/13 02:47:45;;;;;;;11.37;5.03;;;-1.10;99.90;;;-3.06;100.00;100645.91;10211925;28;96603;-87
2024/01/13 02:52:50;;;;;;;9.37;4.97;;;-1.10;99.90;;;-3.01;100.00;100649.13;10211992;28;96586;-87
2024/01/13 02:57:54;;;;;;;7.83;4.00;;;-1.10;99.90;;;-3.06;100.00;100636.38;10211858;28;96496;-87
2024/01/13 03:03:02;;;;;;;8.23;3.80;;;-1.10;99.90;;;-3.03;99.99;100631.00;10211207;28;96573;-86
2024/01/13 03:08:08;;;;;;;8.70;4.20;;;-1.10;99.90;;;-3.08;100.00;100629.53;10209935;28;96470;-87
2024/01/13 03:13:19;;;;;;;9.30;4.53;;;-1.10;99.90;;;-3.03;100.00;100631.00;10226510;28;96545;-87
2024/01/13 03:18:22;;;;;;;7.67;3.63;;;-1.10;99.90;;;-3.03;99.68;100612.81;10209807;28;100023;-86
2024/01/13 03:23:36;;;;;;;9.13;3.53;;;-1.10;99.90;;;-2.96;99.83;100616.81;10224586;28;96494;-86
2024/01/13 03:28:40;;;;;;;8.00;3.37;;;-1.10;99.90;;;-2.96;99.75;100616.81;10217300;28;97948;-86
2024/01/13 03:33:46;;;;;;;8.53;3.67;;;-1.00;99.90;;;-2.91;99.54;100610.56;10210557;28;96711;-87
2024/01/13 03:38:53;;;;;;;6.30;3.43;;;-1.00;99.90;;;-2.89;99.67;100606.13;10240981;28;96561;-86
2024/01/13 03:43:57;;;;;;;8.93;4.60;;;-1.00;99.90;;;-2.87;99.87;100617.31;10208929;28;96591;-87
2024/01/13 03:49:01;;;;;;;10.20;4.17;;;-0.90;99.90;;;-2.80;99.67;100605.69;10223990;28;96624;-87
2024/01/13 03:54:05;;;;;;;6.57;3.17;;;-0.90;99.90;;;-2.74;99.93;100610.59;10225617;28;96533;-86
2024/01/13 03:59:13;;;;;;;10.37;4.13;;;-0.80;99.90;;;-2.70;99.40;100599.13;10210099;28;96587;-87
2024/01/13 04:04:16;;;;;;;9.73;4.10;;;-0.80;99.90;;;-2.63;98.68;100590.13;10209154;28;96623;-87
2024/01/13 04:09:21;;;;;;;10.97;4.90;;;-0.70;99.90;;;-2.56;98.55;100583.69;10227036;28;96651;-88
2024/01/13 04:14:24;;;;;;;12.37;5.13;;;-0.70;99.90;;;-2.49;98.15;100598.09;10216177;28;96571;-87
2024/01/13 04:19:28;;;;;;;13.83;4.00;;;-0.60;99.90;;;-2.47;98.33;100588.44;10214734;28;96534;-87
2024/01/13 04:24:32;;;;;;;7.53;3.93;;;-0.60;99.90;;;-2.49;98.29;100585.06;10216009;28;96546;-87
2024/01/13 04:29:35;;;;;;;9.03;4.33;;;-0.60;99.90;;;-2.47;98.55;100575.41;10214369;28;96646;-87
2024/01/13 04:34:39;;;;;;;11.37;4.20;;;-0.60;99.90;;;-2.50;99.28;100577.34;10213637;28;96510;-87
2024/01/13 04:39:42;;;;;;;9.63;4.27;;;-0.60;99.90;;;-2.54;99.26;100571.44;10214294;28;96623;-87
2024/01/13 04:44:46;;;;;;;13.63;4.73;;;-0.60;99.90;;;-2.55;100.00;100577.56;10214479;28;96606;-87
2024/01/13 04:49:50;;;;;;;9.63;4.80;;;-0.60;99.90;;;-2.53;100.00;100567.91;10227913;28;96748;-87
2024/01/13 04:54:53;;;;;;;10.20;4.20;;;-0.60;99.90;;;-2.55;100.00;100568.91;10230876;28;96680;-87
2024/01/13 04:59:57;;;;;;;7.90;4.57;;;-0.60;99.90;;;-2.39;100.00;100579.44;10230390;28;96662;-87
2024/01/13 05:05:00;;;;;;;11.47;5.27;;;-0.50;99.90;;;-2.34;100.00;100574.81;10215994;28;97533;-87
2024/01/13 05:10:06;;;;;;;11.90;5.27;;;-0.50;99.90;;;-2.33;100.00;100560.91;10230770;28;96647;-87
2024/01/13 05:15:10;;;;;;;14.07;5.73;;;-0.40;99.90;;;-2.26;99.79;100570.09;10212898;28;96769;-88
2024/01/13 05:20:14;;;;;;;11.10;4.57;;;-0.40;99.90;;;-2.23;99.51;100575.13;10178349;28;96717;-89
2024/01/13 05:25:17;;;;;;;10.70;5.27;;;-0.40;99.90;;;-2.24;99.44;100578.66;10190624;28;96483;-89
2024/01/13 05:30:21;;;;;;;12.27;5.37;;;-0.40;99.90;;;-2.24;99.72;100583.84;10228898;28;96624;-88
2024/01/13 05:35:26;;;;;;;10.60;5.40;;;-0.40;99.90;;;-2.26;99.58;100589.16;10227279;28;97589;-86
2024/01/13 05:40:29;;;;;;;10.87;4.70;;;-0.30;99.90;;;-2.26;99.75;100609.13;10228648;28;96502;-87
2024/01/13 05:45:33;;;;;;;10.77;4.60;;;-0.30;99.90;;;-2.26;100.00;100624.75;10230380;28;97900;-87
2024/01/13 05:50:36;;;;;;;10.43;4.40;;;-0.40;99.90;;;-2.19;99.86;100633.94;10253287;28;97876;-87
2024/01/13 05:55:42;;;;;;;9.03;4.67;;;-0.30;99.90;;;-2.15;99.25;100632.88;10213882;28;96641;-86
2024/01/13 06:00:46;;;;;;;9.47;4.47;;;-0.30;99.90;;;-2.04;98.55;100635.78;10211434;28;97361;-88
2024/01/13 06:05:49;;;;;;;9.43;4.00;;;-0.20;99.90;;;-2.01;98.32;100601.75;10228894;28;96588;-87
2024/01/13 06:10:53;;;;;;;10.00;4.77;;;-0.10;99.90;;;-1.89;97.62;100608.94;10231676;28;96647;-87
2024/01/13 06:15:56;;;;;;;9.67;4.00;;;0.00;99.90;;;-1.78;97.00;100612.78;10227043;28;98483;-86
2024/01/13 06:21:03;;;;;;;5.63;3.00;;;0.10;99.90;;;-1.74;97.31;100606.47;10211715;28;96445;-87
2024/01/13 06:26:09;;;;;;;7.30;3.43;;;0.20;99.90;;;-1.64;96.63;100616.34;10194164;28;96529;-89
2024/01/13 06:31:13;;;;;;;8.13;3.63;;;0.20;99.90;;;-1.56;96.79;100609.88;10239647;28;97656;-87
2024/01/13 06:36:16;;;;;;;8.40;3.30;;;0.30;99.90;;;-1.52;96.29;100595.75;10212068;28;96596;-87
2024/01/13 06:41:20;;;;;;;8.67;3.63;;;0.40;99.90;;;-1.45;95.84;100592.75;10190629;28;96604;-87
2024/01/13 06:46:23;;;;;;;9.37;3.90;;;0.50;99.90;;;-1.40;95.04;100603.78;10210362;28;96584;-86
2024/01/13 06:51:28;;;;;;;12.97;6.00;;;0.50;99.90;;;-1.41;96.19;100604.69;10202891;28;97516;-86
2024/01/13 06:56:31;;;;;;;13.87;6.07;;;0.50;99.90;;;-1.44;97.62;100602.28;10188707;28;98027;-83
2024/01/13 07:01:35;;;;;;;14.90;5.33;;;0.50;99.90;;;-1.48;98.42;100600.75;10211110;28;96429;-87
2024/01/13 07:06:38;;;;;;;14.30;6.47;;;0.50;99.90;;;-1.47;99.07;100586.78;10215586;28;97727;-87
2024/01/13 07:11:42;;;;;;;13.60;6.00;;;0.50;99.90;;;-1.46;99.84;100593.66;10211685;28;96529;-87
2024/01/13 07:16:45;;;;;;;14.27;5.43;;;0.50;99.90;;;-1.46;100.00;100580.63;10210623;28;97230;-86
2024/01/13 07:21:49;;;;;;;13.87;6.83;;;0.40;99.90;;;-1.46;100.00;100565.00;10211368;28;96457;-86
2024/01/13 07:26:53;;;;;;;14.47;6.50;;;0.50;99.90;;;-1.39;100.00;100568.94;10212534;28;96504;-87
2024/01/13 07:31:56;;;;;;;14.20;5.93;;;0.50;99.90;;;-1.31;100.00;100557.28;10209433;28;96607;-86
2024/01/13 07:37:00;;;;;;;17.20;7.33;;;0.60;99.90;;;-1.28;100.00;100565.78;10225860;28;96542;-87
2024/01/13 07:42:04;;;;;;;19.53;6.93;;;0.60;99.90;;;-1.28;100.00;100555.34;10223938;28;96571;-86
2024/01/13 07:47:08;;;;;;;20.27;8.43;;;0.60;99.90;;;-1.27;100.00;100557.03;10210528;28;96433;-87
2024/01/13 07:52:15;;;;;;;19.60;7.90;;;0.70;99.90;;;-1.24;100.00;100556.03;10210420;28;96499;-86
2024/01/13 07:57:18;;;;;;;22.10;9.40;;;0.60;99.90;;;-1.20;100.00;100557.53;10217619;28;96619;-86
2024/01/13 08:02:23;;;;;;;20.93;9.73;;;0.70;99.90;;;-1.19;100.00;100567.06;10232013;28;96611;-86
2024/01/13 08:07:27;;;;;;;18.33;9.20;;;0.70;99.90;;;-1.20;100.00;100550.56;10232760;28;96635;-86
2024/01/13 08:12:30;;;;;;;26.53;10.60;;;0.80;99.90;;;-1.21;100.00;100559.28;10232710;28;97918;-87
2024/01/13 08:17:34;;;;;;;28.30;10.47;;;0.70;99.90;;;-1.18;100.00;100563.50;10217685;28;96576;-87
2024/01/13 08:22:39;;;;;;;29.83;11.53;;;0.70;99.90;;;-1.20;100.00;100568.81;10217233;28;96357;-87
2024/01/13 08:27:44;;;;;;;26.67;9.90;;;0.70;99.90;;;-1.13;100.00;100567.56;10216528;28;96591;-87
2024/01/13 08:32:47;;;;;;;26.90;10.57;;;0.80;99.90;;;-1.08;100.00;100568.16;10245615;28;96757;-87
2024/01/13 08:37:54;;;;;;;24.13;9.67;;;0.80;99.90;;;-1.06;100.00;100560.22;10210458;28;97169;-86
2024/01/13 08:43:00;;;;;;;24.83;8.70;;;0.90;99.90;;;-1.05;100.00;100553.25;10227555;28;96546;-86
2024/01/13 08:48:05;;;;;;;24.83;10.23;;;0.90;99.90;;;-1.03;100.00;100564.41;10216175;28;96824;-87
2024/01/13 08:53:08;;;;;;;28.90;9.57;;;0.90;99.90;;;-1.08;100.00;100551.63;10230869;28;96460;-87
2024/01/13 08:58:12;;;;;;;21.33;9.03;;;0.80;99.90;;;-1.13;100.00;100549.28;10215646;28;96757;-86
2024/01/13 09:03:16;;;;;;;29.20;9.07;;;0.80;99.90;;;-1.06;100.00;100541.97;10197390;28;96605;-87
2024/01/13 09:08:20;;;;;;;22.87;9.07;;;0.80;99.90;;;-1.03;100.00;100531.34;10216405;28;96440;-87
2024/01/13 09:13:24;;;;;;;25.07;10.30;;;0.90;99.90;;;-1.00;100.00;100544.25;10230580;28;96631;-87
2024/01/13 09:18:30;;;;;;;24.77;9.77;;;0.90;99.90;;;-0.96;100.00;100560.53;10215764;28;97167;-87
2024/01/13 09:23:35;;;;;;;27.90;11.07;;;0.90;99.90;;;-0.92;100.00;100546.41;10214143;28;96617;-87
2024/01/13 09:28:38;;;;;;;21.57;10.10;;;1.00;99.90;;;-0.89;100.00;100548.84;10214079;28;96986;-86
2024/01/13 09:33:42;;;;;;;22.00;9.40;;;1.00;99.90;;;-0.85;100.00;100547.75;10214773;28;96557;-87
2024/01/13 09:38:45;;;;;;;23.00;9.83;;;1.10;99.90;;;-0.81;100.00;100544.88;10214643;28;96808;-87
2024/01/13 09:44:05;;;;;;;20.93;9.27;;;1.10;99.90;;;-0.77;100.00;100539.50;10214245;28;96677;-87
2024/01/13 09:49:13;;;;;;;19.20;7.80;;;1.10;99.90;;;-0.77;99.74;100529.06;10213524;28;96553;-86
2024/01/13 09:54:17;;;;;;;26.90;10.03;;;1.20;99.90;;;-0.69;100.00;100532.91;10230851;28;96443;-86
2024/01/13 09:59:22;;;;;;;22.73;8.87;;;1.20;99.90;;;-0.70;99.41;100535.59;10214336;28;96413;-86
2024/01/13 10:04:27;;;;;;;18.40;8.40;;;1.20;99.90;;;-0.65;99.09;100526.59;10213721;28;96571;-86
2024/01/13 10:09:31;;;;;;;23.13;10.00;;;1.20;99.90;;;-0.60;98.63;100526.28;10235132;28;96492;-85
2024/01/13 10:14:42;;;;;;;13.80;6.30;;;1.30;99.90;;;-0.60;97.62;100511.50;10211895;28;96499;-86
2024/01/13 10:19:49;;;;;;;17.90;7.50;;;1.30;99.90;;;-0.48;97.41;100498.63;10226799;28;96734;-86
2024/01/13 10:24:52;;;;;;;19.73;6.30;;;1.40;99.90;;;-0.39;95.84;100503.34;10211952;28;96443;-87
2024/01/13 10:29:57;;;;;;;18.77;6.73;;;1.50;99.90;;;-0.35;95.84;100507.44;10213046;28;96397;-86
2024/01/13 10:35:02;;;;;;;11.93;5.87;;;1.60;99.90;;;-0.23;94.16;100500.66;10183013;28;96576;-86
2024/01/13 10:40:08;;;;;;;22.50;8.50;;;1.60;99.90;;;-0.23;93.71;100498.06;10204120;28;97614;-86
2024/01/13 10:45:16;;;;;;;15.73;7.23;;;1.60;99.90;;;-0.19;93.18;100476.00;10203440;28;96374;-86
2024/01/13 10:50:20;;;;;;;18.37;6.40;;;1.70;99.90;;;-0.14;93.64;100476.59;10219431;28;96501;-86
2024/01/13 10:55:25;;;;;;;15.43;6.10;;;1.80;99.90;;;-0.09;92.68;100478.00;10226810;28;96602;-86
2024/01/13 11:00:30;;;;;;;41.70;15.20;;;1.80;99.90;;;-0.03;92.29;100467.16;10243252;28;96449;-86
2024/01/13 11:05:37;;;;;;;24.23;10.60;;;1.90;99.90;;;0.02;91.82;100461.66;10211293;28;96721;-86
2024/01/13 11:10:46;;;;;;;17.63;7.93;;;1.90;99.90;;;0.01;91.90;100462.59;10226588;28;97950;-85
2024/01/13 11:16:06;;;;;;;18.23;7.23;;;1.90;99.90;;;-0.05;91.18;100450.75;10226331;28;96382;-85
2024/01/13 11:21:10;;;;;;;13.63;5.87;;;1.90;99.90;;;-0.10;90.88;100463.25;10224322;28;96515;-86
2024/01/13 11:26:54;;;;;;;17.17;6.57;;;1.80;99.90;;;-0.30;91.69;100450.53;10210286;28;96649;-86
2024/01/13 11:32:00;;;;;;;17.47;6.90;;;1.60;99.90;;;-0.37;92.07;100439.63;10166064;28;98979;-86
2024/01/13 11:37:10;;;;;;;23.17;8.37;;;1.60;99.90;;;-0.47;92.69;100424.63;10210310;28;96591;-85
2024/01/13 11:42:17;;;;;;;18.37;6.90;;;1.50;99.90;;;-0.44;93.08;100422.66;10226914;28;96519;-85
2024/01/13 11:47:29;;;;;;;16.83;7.03;;;1.50;99.90;;;-0.39;92.59;100432.84;10210216;28;97579;-86
2024/01/13 11:52:33;;;;;;;15.80;6.67;;;1.50;99.90;;;-0.40;92.69;100403.28;10210192;28;96642;-85
2024/01/13 11:57:39;;;;;;;16.53;6.67;;;1.50;99.90;;;-0.34;91.98;100397.69;10224004;28;96535;-86
2024/01/13 12:02:43;;;;;;;14.70;6.90;;;1.50;99.90;;;-0.29;92.24;100385.19;10225048;28;96507;-85
2024/01/13 12:07:46;;;;;;;19.03;7.20;;;1.60;99.90;;;-0.22;91.09;100384.81;10224961;28;97055;-85
2024/01/13 12:12:50;;;;;;;14.07;6.47;;;1.70;99.90;;;-0.13;90.58;100365.94;10210364;28;96653;-85
2024/01/13 12:17:53;;;;;;;13.70;5.97;;;1.70;99.90;;;-0.08;90.12;100376.94;10207406;28;96684;-86
2024/01/13 12:22:57;;;;;;;20.23;6.17;;;1.80;99.90;;;-0.08;89.80;100356.88;10208144;28;96584;-86
2024/01/13 12:28:01;;;;;;;13.13;5.97;;;1.80;99.90;;;-0.06;88.22;100360.25;10208094;28;97504;-85
2024/01/13 12:33:06;;;;;;;14.17;6.70;;;1.90;99.90;;;-0.04;88.45;100361.00;10228583;28;96788;-86
2024/01/13 12:38:10;;;;;;;15.40;6.43;;;1.80;99.90;;;-0.09;88.34;100344.75;10225029;28;96670;-87
2024/01/13 12:43:14;;;;;;;16.17;6.17;;;1.80;99.90;;;-0.15;87.99;100357.38;10219617;28;96616;-86
2024/01/13 12:48:20;;;;;;;15.53;6.33;;;1.80;99.90;;;-0.15;88.81;100365.22;10230576;28;96563;-86
2024/01/13 12:53:27;;;;;;;15.27;5.57;;;1.70;99.90;;;-0.20;88.89;100356.81;10225964;28;98235;-86
2024/01/13 12:58:31;;;;;;;14.07;5.97;;;1.70;99.90;;;-0.20;88.39;100349.81;10214339;28;96926;-86
2024/01/13 13:03:34;;;;;;;14.70;6.17;;;1.70;99.90;;;-0.19;88.67;100363.72;10207896;28;96801;-85
2024/01/13 13:08:38;;;;;;;33.50;7.87;;;1.70;99.90;;;-0.23;88.54;100357.00;10213597;28;96543;-86
2024/01/13 13:13:42;;;;;;;39.57;14.83;;;1.70;99.90;;;-0.20;89.05;100359.44;10212821;28;98087;-85
2024/01/13 13:18:48;;;;;;;10.80;5.00;;;1.70;99.90;;;-0.21;88.66;100355.13;10211813;28;96988;-86
2024/01/13 13:23:51;;;;;;;15.07;5.63;;;1.70;99.90;;;-0.20;88.63;100351.59;10188399;28;96691;-84
2024/01/13 13:28:56;;;;;;;13.60;5.20;;;1.70;99.90;;;-0.18;88.07;100352.31;10205802;28;97733;-84
2024/01/13 13:34:00;;;;;;;9.67;4.43;;;1.70;99.90;;;-0.16;87.54;100338.25;10209517;28;96539;-85
2024/01/13 13:39:05;;;;;;;9.77;4.00;;;1.70;99.90;;;-0.14;86.94;100335.53;10211553;28;97840;-84
2024/01/13 13:44:09;;;;;;;8.97;4.57;;;1.70;99.90;;;-0.17;86.84;100331.34;10196548;28;96595;-84
2024/01/13 13:49:13;;;;;;;8.67;3.57;;;1.70;99.90;;;-0.17;87.37;100317.47;10206684;28;97729;-84
2024/01/13 13:54:17;;;;;;;8.77;3.80;;;1.70;99.90;;;-0.14;85.84;100312.84;10196217;28;96576;-85
2024/01/13 13:59:20;;;;;;;11.37;4.60;;;1.80;99.90;;;-0.12;85.76;100307.53;10213217;28;96616;-86
2024/01/13 14:04:24;;;;;;;9.10;4.37;;;1.80;99.90;;;-0.08;85.92;100309.03;10177764;28;96520;-84
2024/01/13 14:09:27;;;;;;;10.00;4.63;;;1.80;99.90;;;-0.06;85.49;100296.69;10196981;28;96585;-85
2024/01/13 14:14:32;;;;;;;9.30;4.37;;;1.80;99.90;;;-0.03;86.21;100288.69;10213099;28;97847;-84
2024/01/13 14:19:36;;;;;;;9.43;4.13;;;1.90;99.90;;;-0.01;85.71;100279.78;10224902;28;97651;-85
2024/01/13 14:24:40;;;;;;;8.97;4.10;;;1.90;99.90;;;-0.01;84.41;100274.56;10210298;28;96521;-85
2024/01/13 14:29:43;;;;;;;8.27;4.10;;;1.90;99.90;;;-0.01;85.05;100263.28;10204911;28;96631;-85
2024/01/13 14:34:48;;;;;;;8.53;3.87;;;1.90;99.90;;;-0.03;84.39;100262.56;10221661;28;97440;-85
2024/01/13 14:40:10;;;;;;;8.33;3.87;;;1.90;99.90;;;-0.12;83.52;100250.06;10211276;28;96580;-84
2024/01/13 14:45:14;;;;;;;9.60;4.13;;;1.80;99.90;;;-0.27;83.32;100247.50;10227164;28;96612;-84
2024/01/13 14:50:25;;;;;;;6.65;3.55;;;1.70;99.90;;;-0.39;84.54;100243.06;10205948;28;96466;-84
2024/01/13 14:55:30;;;;;;;11.33;4.47;;;1.60;99.90;;;-0.52;85.40;100247.38;10209742;28;96522;-84
2024/01/13 15:00:34;;;;;;;10.33;4.57;;;1.50;99.90;;;-0.67;86.77;100243.94;10208473;28;98015;-84
2024/01/13 15:05:40;;;;;;;11.07;4.43;;;1.30;99.90;;;-0.81;88.46;100242.19;10225069;28;96688;-84
2024/01/13 15:10:45;;;;;;;13.07;5.67;;;1.20;99.90;;;-0.88;90.46;100240.06;10209811;28;97001;-84
2024/01/13 15:15:49;;;;;;;11.60;4.67;;;1.10;99.90;;;-0.96;91.11;100237.94;10224599;28;96635;-85
2024/01/13 15:20:53;;;;;;;11.67;5.33;;;1.00;99.90;;;-1.04;92.21;100234.94;10225027;28;96469;-85
2024/01/13 15:25:56;;;;;;;11.80;4.30;;;0.90;99.90;;;-1.17;93.56;100237.44;10209774;28;96580;-85
2024/01/13 15:31:02;;;;;;;11.97;5.33;;;0.80;99.90;;;-1.23;94.47;100218.72;10208596;28;96627;-84
2024/01/13 15:36:06;;;;;;;15.30;5.97;;;0.70;99.90;;;-1.39;95.72;100206.59;10215812;28;98368;-85
2024/01/13 15:41:10;;;;;;;12.60;5.87;;;0.60;99.90;;;-1.49;96.02;100208.09;10229266;28;97788;-85
2024/01/13 15:46:13;;;;;;;14.60;5.20;;;0.50;99.90;;;-1.62;96.94;100168.03;10197217;28;96506;-85
2024/01/13 15:51:17;;;;;;;9.43;4.07;;;0.40;99.90;;;-1.69;97.72;100192.78;10215917;28;96587;-85
2024/01/13 15:56:21;;;;;;;11.00;4.73;;;0.30;99.90;;;-1.76;98.89;100210.53;10224698;28;97546;-85
2024/01/13 16:01:24;;;;;;;7.97;4.20;;;0.20;99.90;;;-1.77;99.15;100223.66;10222984;28;96602;-85
2024/01/13 16:06:28;;;;;;;9.20;4.40;;;0.20;99.90;;;-1.81;99.21;100215.19;10207974;28;96538;-85
2024/01/13 16:11:32;;;;;;;15.30;5.47;;;0.10;99.90;;;-1.88;99.19;100195.63;10205301;28;96739;-85
2024/01/13 16:16:36;;;;;;;9.20;4.33;;;0.10;99.90;;;-1.92;99.58;100195.00;10224255;28;98203;-84
2024/01/13 16:21:41;;;;;;;11.37;4.63;;;0.10;99.90;;;-1.93;99.28;100198.50;10214256;28;96534;-85
2024/01/13 16:26:49;;;;;;;17.90;6.80;;;0.00;99.90;;;-1.97;99.29;100206.59;10228210;28;98166;-85
2024/01/13 16:31:53;;;;;;;13.40;5.63;;;0.00;99.90;;;-2.06;99.20;100210.53;10240888;28;97201;-85
2024/01/13 16:36:58;;;;;;;15.97;6.23;;;-0.10;99.90;;;-2.15;99.49;100205.88;10195625;28;96547;-85
2024/01/13 16:42:02;;;;;;;14.47;5.30;;;-0.20;99.90;;;-2.22;100.00;100208.00;10185016;28;96480;-85
2024/01/13 16:47:07;;;;;;;9.70;4.63;;;-0.20;99.90;;;-2.24;100.00;100198.56;10177655;28;98145;-85
2024/01/13 16:52:12;;;;;;;11.27;5.27;;;-0.30;99.90;;;-2.39;100.00;100176.03;10175010;28;97687;-86
2024/01/13 16:57:18;;;;;;;15.60;5.93;;;-0.30;99.90;;;-2.46;100.00;100173.78;10174012;28;97314;-86
2024/01/13 17:02:22;;;;;;;13.57;4.63;;;-0.40;99.90;;;-2.46;100.00;100180.72;10167896;28;96555;-84
2024/01/13 17:07:45;;;;;;;13.97;6.13;;;-0.40;99.90;;;-2.54;100.00;100167.28;10187144;28;96632;-84
2024/01/13 17:12:49;;;;;;;19.80;5.97;;;-0.50;99.90;;;-2.51;100.00;100165.38;10174300;28;96823;-84
2024/01/13 17:17:54;;;;;;;14.07;5.43;;;-0.50;99.90;;;-2.54;100.00;100170.72;10175866;28;96779;-84
2024/01/13 17:22:58;;;;;;;17.03;7.27;;;-0.50;99.90;;;-2.59;100.00;100170.16;10173287;28;96513;-83
2024/01/13 17:28:02;;;;;;;22.77;9.10;;;-0.60;99.90;;;-2.65;100.00;100177.47;10174211;28;96398;-84
2024/01/13 17:33:05;;;;;;;21.77;8.00;;;-0.60;99.90;;;-2.71;100.00;100178.63;10196424;28;97011;-84
2024/01/13 17:38:10;;;;;;;17.53;7.20;;;-0.70;99.90;;;-2.77;100.00;100177.19;10214720;28;96446;-85
2024/01/13 17:43:14;;;;;;;17.93;7.17;;;-0.70;99.90;;;-2.84;100.00;100162.03;10247376;28;96528;-83
2024/01/13 17:48:18;;;;;;;15.27;6.27;;;-0.80;99.90;;;-2.91;100.00;100148.53;10218436;28;98605;-83
2024/01/13 17:53:23;;;;;;;18.20;6.83;;;-0.80;99.90;;;-2.90;100.00;100152.78;10263921;28;96598;-83
2024/01/13 17:58:27;;;;;;;23.77;8.00;;;-0.90;99.90;;;-2.86;100.00;100156.09;10249873;28;96548;-83
2024/01/13 18:03:32;;;;;;;20.17;7.83;;;-0.80;99.90;;;-2.83;100.00;100145.50;10224872;28;96632;-83
2024/01/13 18:08:36;;;;;;;17.47;6.83;;;-0.80;99.90;;;-2.74;100.00;100148.44;10226679;28;96728;-83
2024/01/13 18:13:40;;;;;;;19.20;7.10;;;-0.80;99.90;;;-2.72;100.00;100141.38;10227400;28;96499;-84
2024/01/13 18:18:44;;;;;;;20.10;7.50;;;-0.80;99.90;;;-2.73;100.00;100125.88;10227259;28;96633;-83
2024/01/13 18:23:49;;;;;;;18.70;6.73;;;-0.80;99.90;;;-2.72;100.00;100132.75;10218123;28;96562;-83
2024/01/13 18:28:52;;;;;;;18.17;7.30;;;-0.80;99.90;;;-2.77;100.00;100106.97;10229026;28;96593;-84
2024/01/13 18:33:56;;;;;;;22.87;8.00;;;-0.80;99.90;;;-2.87;100.00;100103.22;10239771;28;97893;-84
2024/01/13 18:38:59;;;;;;;19.57;7.20;;;-0.80;99.90;;;-2.93;100.00;100092.34;10210349;28;97037;-84
2024/01/13 18:44:05;;;;;;;21.30;7.27;;;-0.90;99.90;;;-2.96;100.00;100070.75;10241742;28;98529;-86
2024/01/13 18:49:09;;;;;;;20.07;7.67;;;-1.00;99.90;;;-2.96;100.00;100072.53;10232415;28;96702;-84
2024/01/13 18:54:13;;;;;;;25.90;8.73;;;-1.00;99.90;;;-3.02;100.00;100086.69;10240635;28;96829;-84
2024/01/13 18:59:18;;;;;;;24.03;8.63;;;-1.00;99.90;;;-3.07;100.00;100083.50;10244765;28;96627;-84
2024/01/13 19:04:21;;;;;;;23.53;8.37;;;-1.10;99.90;;;-3.09;100.00;100079.34;10240201;28;98273;-84
2024/01/13 19:09:26;;;;;;;21.27;7.80;;;-1.10;99.90;;;-3.12;100.00;100061.28;10224096;28;96953;-83
2024/01/13 19:14:30;;;;;;;25.40;9.60;;;-1.10;99.90;;;-3.06;100.00;100055.75;10229789;28;96591;-85
2024/01/13 19:19:34;;;;;;;28.00;8.40;;;-1.10;99.90;;;-3.01;100.00;100058.94;10225867;28;97245;-82
2024/01/13 19:24:39;;;;;;;22.63;8.17;;;-1.00;99.90;;;-3.01;100.00;100051.97;10213179;28;96590;-85
2024/01/13 19:29:44;;;;;;;22.40;8.30;;;-1.00;99.90;;;-3.02;100.00;100052.91;10229924;28;96775;-83
2024/01/13 19:34:48;;;;;;;23.83;8.30;;;-1.00;99.90;;;-3.02;100.00;100045.09;10231957;28;96728;-83
2024/01/13 19:39:51;;;;;;;21.17;8.93;;;-1.00;99.90;;;-3.05;100.00;100044.47;10233700;28;96503;-85
2024/01/13 19:44:55;;;;;;;22.60;7.37;;;-1.10;99.90;;;-3.08;100.00;100049.81;10227547;28;96604;-83
2024/01/13 19:49:59;;;;;;;22.67;7.47;;;-1.10;99.90;;;-3.12;100.00;100050.91;10251242;28;96732;-84
2024/01/13 19:55:04;;;;;;;25.13;8.43;;;-1.10;99.90;;;-3.22;100.00;100039.34;10215549;28;98079;-83
2024/01/13 20:00:09;;;;;;;22.90;8.47;;;-1.20;99.90;;;-3.23;100.00;100035.91;10247359;28;96830;-84
2024/01/13 20:05:13;;;;;;;29.00;9.50;;;-1.30;99.90;;;-3.33;100.00;100014.78;10248003;28;97537;-83
2024/01/13 20:10:18;;;;;;;29.03;9.87;;;-1.30;99.90;;;-3.25;100.00;100022.97;10234091;28;97014;-84
2024/01/13 20:15:21;;;;;;;24.87;8.80;;;-1.30;99.90;;;-3.22;100.00;100022.00;10224569;28;97271;-84
2024/01/13 20:20:26;;;;;;;24.17;8.90;;;-1.30;99.90;;;-3.20;100.00;100033.13;10254558;28;97093;-84
2024/01/13 20:25:30;;;;;;;25.97;9.50;;;-1.30;99.90;;;-3.28;100.00;100025.75;10247843;28;96559;-84
2024/01/13 20:30:34;;;;;;;25.63;8.93;;;-1.30;99.90;;;-3.34;100.00;100020.06;10219905;28;96650;-84
2024/01/13 20:35:38;;;;;;;24.20;8.97;;;-1.30;99.90;;;-3.44;100.00;100008.50;10218521;28;96606;-85
2024/01/13 20:40:41;;;;;;;28.20;8.63;;;-1.40;99.90;;;-3.46;100.00;100018.13;10226527;28;96750;-84